Time;durP1;ratioP1;P1;durP2;ratioP2;P2;SDS_P1;SDS_P2;PMS_P1;PMS_P2;Temp;Humidity;BMP_temperature;BMP_pressure;BME280_temperature;BME280_humidity;BME280_pressure;Samples;Min_cycle;Max_cycle;Signal;HPM_P1;HPM_P2
2023/11/28 00:02:12;;;;;;;109.90;71.80;;;;;;;-3.01;100.00;98899.77;110787;1258;23017;-78
2023/11/28 00:04:49;;;;;;;99.50;68.10;;;;;;;-3.02;100.00;98897.21;110822;1256;23071;-77
2023/11/28 00:07:30;;;;;;;102.70;68.40;;;;;;;-3.01;100.00;98891.27;110896;1258;21922;-78
2023/11/28 00:10:26;;;;;;;95.10;62.50;;;;;;;-3.03;100.00;98891.09;110950;1258;23058;-76
2023/11/28 00:13:10;;;;;;;99.10;67.80;;;;;;;-2.99;100.00;98890.21;110964;1254;24481;-78
2023/11/28 00:15:45;;;;;;;102.80;65.50;;;;;;;-2.98;100.00;98887.48;110347;1263;22169;-77
2023/11/28 00:18:32;;;;;;;109.90;71.10;;;;;;;-2.98;100.00;98888.52;110535;1259;22052;-79
2023/11/28 00:21:16;;;;;;;103.60;68.80;;;;;;;-2.99;100.00;98883.41;110859;1259;22089;-77
2023/11/28 00:23:55;;;;;;;105.10;68.30;;;;;;;-2.99;100.00;98885.96;110864;1259;22054;-78
2023/11/28 00:26:30;;;;;;;102.90;66.60;;;;;;;-3.00;100.00;98883.92;110707;1259;22634;-77
2023/11/28 00:29:06;;;;;;;92.80;64.60;;;;;;;-2.98;100.00;98886.81;110516;1260;22491;-76
2023/11/28 00:31:46;;;;;;;88.60;61.50;;;;;;;-2.99;100.00;98883.41;110339;1253;21973;-78
2023/11/28 00:34:35;;;;;;;92.40;60.10;;;;;;;-2.99;100.00;98873.55;110763;1256;21969;-77
2023/11/28 00:37:09;;;;;;;74.10;54.30;;;;;;;-3.01;100.00;98868.45;110626;1263;21967;-78
2023/11/28 00:39:46;;;;;;;73.60;52.10;;;;;;;-3.02;100.00;98865.72;110190;1264;23612;-78
2023/11/28 00:42:30;;;;;;;79.80;55.00;;;;;;;-3.03;100.00;98864.20;110529;1263;21980;-78
2023/11/28 00:45:17;;;;;;;86.40;56.90;;;;;;;-3.04;100.00;98858.59;110429;1263;23621;-78
2023/11/28 00:47:53;;;;;;;89.30;61.30;;;;;;;-3.04;100.00;98856.73;110581;1258;23696;-77
2023/11/28 00:50:29;;;;;;;75.30;54.10;;;;;;;-3.04;100.00;98852.30;110549;1263;23605;-77
2023/11/28 00:53:04;;;;;;;73.20;52.50;;;;;;;-3.05;100.00;98849.23;110005;1269;22021;-76
2023/11/28 00:55:50;;;;;;;74.00;51.90;;;;;;;-3.05;100.00;98847.71;110023;1264;21987;-78
2023/11/28 00:58:35;;;;;;;77.70;53.10;;;;;;;-3.08;100.00;98842.30;110339;1264;24388;-78
2023/11/28 01:01:06;;;;;;;83.30;54.40;;;;;;;-3.09;100.00;98841.79;110318;1264;21983;-79
2023/11/28 01:03:45;;;;;;;78.30;53.50;;;;;;;-3.10;100.00;98842.80;109411;1270;22452;-77
2023/11/28 01:06:21;;;;;;;79.80;54.20;;;;;;;-3.13;100.00;98845.22;109721;1270;22178;-82
2023/11/28 01:08:59;;;;;;;74.20;53.00;;;;;;;-3.12;100.00;98843.50;109285;1273;21970;-80
2023/11/28 01:11:47;;;;;;;82.30;53.00;;;;;;;-3.13;100.00;98840.77;109038;1275;21986;-76
2023/11/28 01:14:34;;;;;;;;;;;;;;;;;;;;;
2023/11/28 01:17:19;;;;;;;73.00;51.10;;;;;;;-3.18;100.00;98841.84;109487;1266;24060;-77
2023/11/28 01:19:53;;;;;;;67.60;48.20;;;;;;;-3.20;100.00;98840.66;110209;1265;23703;-77
2023/11/28 01:22:30;;;;;;;71.50;49.70;;;;;;;-3.19;100.00;98842.35;110146;1265;21978;-77
2023/11/28 01:25:11;;;;;;;68.90;47.30;;;;;;;-3.19;100.00;98842.18;110057;1267;22040;-78
2023/11/28 01:27:41;;;;;;;68.30;48.10;;;;;;;-3.19;100.00;98837.58;110283;1257;22177;-79
2023/11/28 01:30:27;;;;;;;59.70;43.20;;;;;;;-3.18;100.00;98830.27;110479;1259;22976;-79
2023/11/28 01:33:02;;;;;;;63.90;43.60;;;;;;;-3.18;100.00;98824.30;110455;1262;22014;-78
2023/11/28 01:35:35;;;;;;;61.80;44.90;;;;;;;-3.16;100.00;98822.27;109788;1268;22008;-77
2023/11/28 01:38:14;;;;;;;65.90;46.00;;;;;;;-3.13;100.00;98817.82;109426;1272;22901;-78
2023/11/28 01:40:59;;;;;;;63.20;47.50;;;;;;;-3.11;100.00;98816.77;108942;1277;22021;-77
2023/11/28 01:43:50;;;;;;;67.70;47.00;;;;;;;-3.10;100.00;98807.58;109183;1273;21980;-79
2023/11/28 01:46:34;;;;;;;72.30;48.80;;;;;;;-3.09;100.00;98799.75;109314;1273;23182;-76
2023/11/28 01:49:15;;;;;;;69.40;47.50;;;;;;;-3.07;100.00;98795.64;109621;1268;23029;-77
2023/11/28 01:51:56;;;;;;;66.00;45.90;;;;;;;-3.07;100.00;98790.54;109460;1268;23717;-77
2023/11/28 01:54:44;;;;;;;62.60;44.30;;;;;;;-3.07;100.00;98786.96;110127;1263;21972;-78
2023/11/28 01:57:21;;;;;;;63.10;44.70;;;;;;;-3.06;100.00;98787.30;110362;1263;22957;-76
2023/11/28 01:59:59;;;;;;;63.00;45.80;;;;;;;-3.03;100.00;98788.80;110805;1258;21973;-76
2023/11/28 02:02:34;;;;;;;61.90;45.00;;;;;;;-3.02;100.00;98783.70;111025;1251;21962;-76
2023/11/28 02:05:11;;;;;;;61.70;45.30;;;;;;;-3.00;100.00;98782.66;111476;1252;22142;-76
2023/11/28 02:07:48;;;;;;;58.00;41.40;;;;;;;-2.97;100.00;98781.61;111210;1252;21957;-77
2023/11/28 02:10:27;;;;;;;59.60;44.00;;;;;;;-2.95;100.00;98772.73;111133;1252;21964;-77
2023/11/28 02:13:07;;;;;;;58.50;44.10;;;;;;;-2.94;100.00;98763.88;111088;1253;23703;-78
2023/11/28 02:15:47;;;;;;;57.40;42.30;;;;;;;-2.93;100.00;98761.48;111216;1252;21955;-75
2023/11/28 02:18:21;;;;;;;59.10;43.20;;;;;;;-2.93;100.00;98754.34;111091;1259;23683;-77
2023/11/28 02:20:55;;;;;;;57.00;39.40;;;;;;;-2.89;100.00;98749.38;110667;1258;22056;-77
2023/11/28 02:23:30;;;;;;;56.50;42.50;;;;;;;-2.87;100.00;98745.09;110810;1259;23573;-77
2023/11/28 02:26:21;;;;;;;56.90;42.90;;;;;;;-2.85;100.00;98740.14;110689;1259;24280;-77
2023/11/28 02:28:58;;;;;;;58.50;42.30;;;;;;;-2.86;100.00;98731.63;110688;1257;22006;-78
2023/11/28 02:31:34;;;;;;;59.60;42.50;;;;;;;-2.85;100.00;98726.34;110928;1258;21971;-77
2023/11/28 02:34:16;;;;;;;57.80;41.30;;;;;;;-2.85;100.00;98718.85;110755;1255;23026;-76
2023/11/28 02:37:19;;;;;;;56.70;40.30;;;;;;;-2.87;100.00;98716.15;111305;1252;21951;-75
2023/11/28 02:40:12;;;;;;;59.00;41.90;;;;;;;-2.89;100.00;98717.36;111160;1253;22041;-76
2023/11/28 02:42:53;;;;;;;55.00;38.40;;;;;;;-2.90;100.00;98713.80;111291;1253;23011;-78
2023/11/28 02:45:29;;;;;;;53.30;37.40;;;;;;;-2.88;100.00;98705.78;111163;1253;22057;-76
2023/11/28 02:48:10;;;;;;;45.10;35.30;;;;;;;-2.86;100.00;98705.59;111217;1253;23691;-77
2023/11/28 02:50:48;;;;;;;51.20;37.00;;;;;;;-2.86;100.00;98701.67;111419;1253;21990;-78
2023/11/28 02:53:38;;;;;;;;;;;;;;;;;;;;;
2023/11/28 02:56:18;;;;;;;44.40;35.30;;;;;;;-2.83;100.00;98699.27;111079;1244;23034;-77
2023/11/28 02:58:54;;;;;;;45.70;37.50;;;;;;;-2.83;100.00;98697.56;111166;1253;23467;-77
2023/11/28 03:01:33;;;;;;;42.80;34.50;;;;;;;-2.83;100.00;98690.41;111411;1253;21980;-78
2023/11/28 03:04:07;;;;;;;43.90;35.10;;;;;;;-2.83;100.00;98690.23;111441;1253;23615;-76
2023/11/28 03:06:43;;;;;;;49.60;38.10;;;;;;;-2.84;100.00;98690.25;111091;1241;23034;-76
2023/11/28 03:09:25;;;;;;;54.30;38.70;;;;;;;-2.87;100.00;98686.19;111318;1253;22580;-78
2023/11/28 03:12:11;;;;;;;51.60;38.60;;;;;;;-2.89;100.00;98684.01;111270;1253;21966;-78
2023/11/28 03:14:58;;;;;;;52.50;39.80;;;;;;;-2.91;100.00;98683.86;110742;1259;21977;-77
2023/11/28 03:17:42;;;;;;;45.60;36.20;;;;;;;-2.92;100.00;98677.90;110591;1256;23731;-78
2023/11/28 03:20:17;;;;;;;48.20;36.00;;;;;;;-2.93;100.00;98670.75;110285;1264;21971;-77
2023/11/28 03:22:50;;;;;;;48.20;38.10;;;;;;;-2.93;100.00;98662.92;110182;1259;23825;-79
2023/11/28 03:25:24;;;;;;;44.60;35.70;;;;;;;-2.91;100.00;98661.20;110435;1264;21989;-78
2023/11/28 03:27:56;;;;;;;49.60;37.50;;;;;;;-2.90;100.00;98659.16;109556;1271;23242;-75
2023/11/28 03:30:33;;;;;;;48.10;36.50;;;;;;;-2.91;100.00;98658.99;109371;1271;21979;-76
2023/11/28 03:33:09;;;;;;;48.90;36.10;;;;;;;-2.92;100.00;98659.16;109838;1266;22169;-76
2023/11/28 03:35:46;;;;;;;47.00;35.00;;;;;;;-2.93;100.00;98660.54;110022;1266;23039;-75
2023/11/28 03:38:24;;;;;;;49.60;35.60;;;;;;;-2.93;100.00;98661.23;109800;1265;21993;-77
2023/11/28 03:40:56;;;;;;;47.40;35.20;;;;;;;-2.92;100.00;98658.49;110041;1265;22750;-78
2023/11/28 03:43:33;;;;;;;50.40;38.80;;;;;;;-2.91;100.00;98661.73;110093;1265;23735;-76
2023/11/28 03:46:17;;;;;;;52.60;37.20;;;;;;;-2.93;100.00;98659.52;110080;1259;21972;-76
2023/11/28 03:48:51;;;;;;;52.20;37.50;;;;;;;-2.94;100.00;98658.19;110690;1258;21966;-77
2023/11/28 03:51:35;;;;;;;48.90;35.80;;;;;;;-2.95;100.00;98660.56;109889;1266;21977;-79
2023/11/28 03:54:26;;;;;;;46.30;34.50;;;;;;;-2.97;100.00;98660.08;109894;1266;21975;-77
2023/11/28 03:56:57;;;;;;;46.50;34.60;;;;;;;-2.97;100.00;98655.13;109729;1266;21996;-77
2023/11/28 03:59:36;;;;;;;47.10;33.70;;;;;;;-2.98;100.00;98653.27;109997;1266;22467;-76
2023/11/28 04:02:10;;;;;;;41.90;32.10;;;;;;;-2.96;100.00;98650.36;109409;1264;23754;-77
2023/11/28 04:04:50;;;;;;;45.20;34.70;;;;;;;-2.96;100.00;98646.44;109717;1269;22074;-76
2023/11/28 04:07:34;;;;;;;43.10;31.60;;;;;;;-2.96;100.00;98643.89;109570;1270;21999;-78
2023/11/28 04:10:21;;;;;;;43.20;31.80;;;;;;;-2.95;100.00;98641.33;110059;1262;21975;-78
2023/11/28 04:12:59;;;;;;;42.20;33.90;;;;;;;-2.94;100.00;98636.38;110073;1265;22539;-78
2023/11/28 04:15:39;;;;;;;41.90;31.40;;;;;;;-2.92;100.00;98631.09;109510;1271;21994;-78
2023/11/28 04:18:20;;;;;;;44.60;32.30;;;;;;;-2.90;100.00;98630.05;109500;1271;22665;-77
2023/11/28 04:21:05;;;;;;;45.30;35.10;;;;;;;-2.90;100.00;98625.96;109876;1264;22017;-76
2023/11/28 04:23:39;;;;;;;45.20;34.70;;;;;;;-2.89;100.00;98625.44;110643;1258;23615;-78
2023/11/28 04:26:12;;;;;;;44.30;34.10;;;;;;;-2.87;100.00;98626.61;110689;1258;23073;-77
2023/11/28 04:28:55;;;;;;;43.00;33.80;;;;;;;-2.85;100.00;98624.05;110237;1263;23599;-77
2023/11/28 04:31:35;;;;;;;40.30;31.70;;;;;;;-2.84;100.00;98622.84;110519;1263;22178;-80
2023/11/28 04:34:16;;;;;;;44.20;30.90;;;;;;;-2.84;100.00;98615.00;110724;1257;21980;-78
2023/11/28 04:37:03;;;;;;;40.40;31.70;;;;;;;-2.84;100.00;98614.31;110928;1257;23714;-78
2023/11/28 04:39:44;;;;;;;41.70;32.70;;;;;;;-2.85;100.00;98593.38;111137;1257;22251;-79
2023/11/28 04:42:14;;;;;;;44.70;31.60;;;;;;;-2.81;100.00;98601.34;110564;1261;21972;-77
2023/11/28 04:44:49;;;;;;;;;;;;;;;-2.80;100.00;98604.56;110611;1261;23026;-79
2023/11/28 04:47:24;;;;;;;43.70;31.70;;;;;;;-2.86;100.00;98609.22;110678;1258;24316;-78
2023/11/28 04:49:55;;;;;;;42.00;30.60;;;;;;;-2.85;100.00;98609.55;110874;1258;21925;-78
2023/11/28 04:52:35;;;;;;;43.90;32.10;;;;;;;-2.82;100.00;98608.67;110976;1254;21964;-77
2023/11/28 04:55:09;;;;;;;41.50;31.00;;;;;;;-2.80;100.00;98602.70;110822;1258;23609;-79
2023/11/28 04:57:46;;;;;;;43.70;31.80;;;;;;;-2.77;100.00;98602.48;110898;1258;21967;-77
2023/11/28 05:00:18;;;;;;;42.70;32.50;;;;;;;-2.75;100.00;98608.94;110435;1264;23825;-78
2023/11/28 05:02:54;;;;;;;48.50;33.80;;;;;;;-2.73;100.00;98611.64;109973;1263;23741;-78
2023/11/28 05:05:25;;;;;;;38.70;31.70;;;;;;;-2.73;100.00;98613.52;109529;1268;22436;-78
2023/11/28 05:08:03;;;;;;;45.90;34.30;;;;;;;-2.74;100.00;98604.84;110286;1263;23719;-76
2023/11/28 05:10:41;;;;;;;44.10;32.30;;;;;;;-2.73;100.00;98605.35;110526;1264;21973;-76
2023/11/28 05:13:12;;;;;;;45.40;31.70;;;;;;;-2.70;100.00;98607.52;110595;1263;21979;-78
2023/11/28 05:15:45;;;;;;;43.20;32.40;;;;;;;-2.69;100.00;98608.02;107818;1263;3525596;-79
2023/11/28 05:18:21;;;;;;;43.70;31.10;;;;;;;-2.68;100.00;98610.39;110485;1258;21981;-79
2023/11/28 05:20:51;;;;;;;46.10;34.00;;;;;;;-2.68;100.00;98607.66;110590;1262;22771;-78
2023/11/28 05:23:22;;;;;;;47.60;32.90;;;;;;;-2.69;100.00;98606.30;110673;1262;22398;-79
2023/11/28 05:25:58;;;;;;;50.70;34.10;;;;;;;-2.67;100.00;98604.75;110674;1262;22821;-77
2023/11/28 05:28:38;;;;;;;43.90;32.90;;;;;;;-2.74;100.00;98592.75;110726;1259;21985;-78
2023/11/28 05:31:15;;;;;;;51.70;36.50;;;;;;;-2.67;100.00;98606.29;110936;1259;23628;-76
2023/11/28 05:33:55;;;;;;;48.60;34.70;;;;;;;-2.64;100.00;98607.61;110817;1259;21953;-80
2023/11/28 05:36:29;;;;;;;51.30;38.10;;;;;;;-2.61;100.00;98607.06;110816;1259;21971;-77
2023/11/28 05:39:00;;;;;;;52.10;39.40;;;;;;;-2.58;100.00;98604.64;111007;1253;21966;-78
2023/11/28 05:41:31;;;;;;;53.80;38.30;;;;;;;-2.56;100.00;98598.98;111105;1253;21954;-78
2023/11/28 05:44:15;;;;;;;;;;;;;;;;;;;;;
2023/11/28 05:46:49;;;;;;;55.20;42.50;;;;;;;-2.58;100.00;98592.89;110102;1266;21993;-79
2023/11/28 05:49:20;;;;;;;51.10;41.30;;;;;;;-2.57;100.00;98591.84;110157;1266;21977;-78
2023/11/28 05:52:02;;;;;;;54.80;40.30;;;;;;;-2.56;100.00;98592.52;110164;1266;23699;-80
2023/11/28 05:54:51;;;;;;;57.70;40.80;;;;;;;-2.56;100.00;98597.11;109597;1272;21999;-78
2023/11/28 05:57:28;;;;;;;50.40;38.80;;;;;;;-2.54;100.00;98604.41;109418;1272;21973;-77
2023/11/28 06:00:08;;;;;;;51.20;38.90;;;;;;;-2.51;100.00;98606.26;109573;1272;22421;-80
2023/11/28 06:03:05;;;;;;;50.90;38.60;;;;;;;-2.49;100.00;98605.20;109074;1275;22010;-78
2023/11/28 06:06:07;;;;;;;52.30;39.10;;;;;;;-2.48;100.00;98608.09;109415;1271;22008;-78
2023/11/28 06:09:11;;;;;;;51.80;40.80;;;;;;;-2.49;100.00;98603.51;109207;1272;23058;-77
2023/11/28 06:11:53;;;;;;;;;;;;;;;-2.47;100.00;98600.59;109292;1267;21972;-78
2023/11/28 06:14:35;;;;;;;59.00;40.00;;;;;;;-2.51;100.00;98599.27;110208;1266;22070;-77
2023/11/28 06:17:25;;;;;;;51.20;38.80;;;;;;;-2.51;100.00;98606.25;110011;1266;21998;-79
2023/11/28 06:20:01;;;;;;;55.60;41.10;;;;;;;-2.50;100.00;98604.37;109942;1266;22762;-78
2023/11/28 06:22:42;;;;;;;59.10;39.40;;;;;;;-2.51;100.00;98605.05;109117;1270;22463;-75
2023/11/28 06:25:15;;;;;;;51.10;40.90;;;;;;;-2.49;100.00;98608.43;109422;1272;23644;-77
2023/11/28 06:27:51;;;;;;;53.60;39.70;;;;;;;-2.49;100.00;98611.70;110499;1259;21991;-78
2023/11/28 06:30:22;;;;;;;52.50;39.50;;;;;;;-2.52;100.00;98613.08;110909;1253;21973;-77
2023/11/28 06:32:59;;;;;;;48.00;36.10;;;;;;;-2.52;100.00;98615.64;110756;1259;21984;-78
2023/11/28 06:35:34;;;;;;;51.30;37.10;;;;;;;-2.54;100.00;98622.81;110138;1266;22009;-78
2023/11/28 06:38:09;;;;;;;45.00;37.60;;;;;;;-2.53;100.00;98624.18;109512;1262;21977;-78
2023/11/28 06:40:44;;;;;;;50.30;37.00;;;;;;;-2.52;100.00;98623.80;109222;1272;21998;-78
2023/11/28 06:43:29;;;;;;;42.90;35.10;;;;;;;-2.50;100.00;98626.00;109335;1272;22237;-80
2023/11/28 06:46:26;;;;;;;47.10;35.90;;;;;;;-2.49;100.00;98629.23;109460;1272;21991;-78
2023/11/28 06:49:31;;;;;;;;;;;;;;;-2.49;100.00;98632.64;109595;1271;22693;-77
2023/11/28 06:52:59;;;;;;;44.10;34.80;;;;;;;-2.55;100.00;98637.81;109522;1271;23117;-79
2023/11/28 06:57:48;;;;;;;;;;;;;;;;;;;;;
2023/11/28 07:01:23;;;;;;;53.30;37.80;;;;;;;-2.55;100.00;98627.94;109340;1274;22998;-78
2023/11/28 07:04:23;;;;;;;51.70;38.70;;;;;;;-2.50;100.00;98626.69;108794;1279;21994;-80
2023/11/28 07:07:24;;;;;;;50.40;37.50;;;;;;;-2.45;100.00;98617.94;108490;1284;23104;-77
2023/11/28 07:13:50;;;;;;;49.30;37.40;;;;;;;-2.42;100.00;98613.95;107800;1292;23933;-77
2023/11/28 07:17:01;;;;;;;51.70;36.30;;;;;;;-2.31;100.00;98628.80;107687;1292;22023;-78
2023/11/28 07:19:58;;;;;;;51.20;38.70;;;;;;;-2.27;100.00;98631.15;107789;1292;24171;-78
2023/11/28 07:22:49;;;;;;;49.00;37.60;;;;;;;-2.22;100.00;98637.05;107917;1289;22012;-80
2023/11/28 07:25:49;;;;;;;47.30;38.60;;;;;;;-2.17;100.00;98635.61;108447;1280;22759;-78
2023/11/28 07:29:12;;;;;;;51.00;41.00;;;;;;;-2.13;100.00;98633.52;108906;1281;22002;-79
2023/11/28 07:33:33;;;;;;;;;;;;;;;;;;;;;
2023/11/28 07:37:25;;;;;;;48.50;36.30;;;;;;;-2.08;100.00;98625.09;109220;1271;23716;-80
2023/11/28 07:40:36;;;;;;;;;;;;;;;;;;;;;
2023/11/28 07:45:08;;;;;;;;;;;;;;;;;;;;;
2023/11/28 07:53:39;;;;;;;;;;;;;;;;;;;;;
2023/11/28 07:58:10;;;;;;;52.40;37.70;;;;;;;-1.94;100.00;98633.94;110750;1261;22024;-79
2023/11/28 08:05:38;;;;;;;;;;;;;;;;;;;;;
2023/11/28 08:09:50;;;;;;;;;;;;;;;;;;;;;
2023/11/28 08:14:28;;;;;;;;;;;;;;;;;;;;;
2023/11/28 08:17:53;;;;;;;;;;;;;;;;;;;;;
2023/11/28 08:21:18;;;;;;;45.30;34.30;;;;;;;-1.81;100.00;98632.52;108015;1292;22026;-78
2023/11/28 08:24:55;;;;;;;;;;;;;;;;;;;;;
2023/11/28 08:28:23;;;;;;;;;;;;;;;;;;;;;
2023/11/28 08:31:47;;;;;;;44.10;32.30;;;;;;;-1.83;100.00;98610.23;108047;1293;22020;-81
2023/11/28 08:34:44;;;;;;;43.00;32.90;;;;;;;-1.64;100.00;98627.34;107840;1291;22002;-78
2023/11/28 08:46:09;;;;;;;41.90;33.50;;;;;;;-1.50;100.00;98626.77;106829;1305;22036;-78
2023/11/28 09:00:08;;;;;;;48.60;36.90;;;;;;;0.30;100.00;98631.23;108216;1285;548099;-80
2023/11/28 09:02:51;;;;;;;44.90;35.00;;;;;;;0.81;100.00;98626.35;108062;1259;3587875;-78
2023/11/28 09:05:26;;;;;;;42.80;33.40;;;;;;;0.41;100.00;98630.41;110728;1247;21999;-80
2023/11/28 09:08:05;;;;;;;40.90;34.10;;;;;;;0.16;100.00;98634.77;110434;1263;21987;-79
2023/11/28 09:10:48;;;;;;;39.50;32.20;;;;;;;-0.06;100.00;98635.26;110476;1263;21973;-77
2023/11/28 09:13:27;;;;;;;45.70;34.80;;;;;;;-0.25;100.00;98631.25;110915;1260;22007;-80
2023/11/28 09:16:11;;;;;;;;;;;;;;;-0.42;100.00;98629.70;110713;1265;23074;-80
2023/11/28 09:18:54;;;;;;;47.60;35.80;;;;;;;-0.61;100.00;98629.08;109498;1271;21999;-78
2023/11/28 09:21:40;;;;;;;40.70;32.00;;;;;;;-0.70;100.00;98629.42;109111;1278;22583;-82
2023/11/28 09:24:31;;;;;;;39.40;29.60;;;;;;;-0.72;100.00;98632.72;108854;1278;22175;-79
2023/11/28 09:27:34;;;;;;;40.40;29.70;;;;;;;-0.78;100.00;98639.15;109312;1273;22502;-82
2023/11/28 09:30:55;;;;;;;42.50;32.70;;;;;;;-0.84;100.00;98638.40;109516;1273;21977;-77
2023/11/28 09:34:32;;;;;;;39.30;30.50;;;;;;;-0.87;100.00;98634.70;109448;1268;21978;-79
2023/11/28 09:38:58;;;;;;;;;;;;;;;;;;;;;
2023/11/28 09:42:45;;;;;;;38.40;30.60;;;;;;;-0.76;100.00;98626.30;109329;1274;23058;-76
2023/11/28 09:45:21;;;;;;;37.80;29.60;;;;;;;-0.73;100.00;98622.14;108595;1282;23741;-74
2023/11/28 09:48:30;;;;;;;44.00;31.90;;;;;;;-0.70;100.00;98614.04;108582;1281;22007;-76
2023/11/28 09:51:47;;;;;;;;;;;;;;;;;;;;;
2023/11/28 09:55:32;;;;;;;;;;;;;;;;;;;;;
2023/11/28 09:58:35;;;;;;;40.50;30.60;;;;;;;-0.73;100.00;98608.46;108166;1287;22023;-78
2023/11/28 10:01:34;;;;;;;42.00;32.10;;;;;;;-0.74;100.00;98606.27;108078;1287;22011;-77
2023/11/28 10:04:26;;;;;;;;;;;;;;;;;;;;;
2023/11/28 10:07:16;;;;;;;39.40;31.40;;;;;;;-0.73;100.00;98603.86;108175;1288;23718;-77
2023/11/28 10:10:22;;;;;;;50.00;36.90;;;;;;;-0.69;100.00;98603.61;108131;1287;22042;-77
2023/11/28 10:13:21;;;;;;;52.30;39.10;;;;;;;-0.62;100.00;98601.08;108619;1280;22504;-76
2023/11/28 10:16:19;;;;;;;51.00;37.80;;;;;;;-0.57;100.00;98601.14;108809;1275;22986;-76
2023/11/28 10:19:00;;;;;;;51.40;38.00;;;;;;;-0.53;100.00;98594.75;108947;1275;22444;-78
2023/11/28 10:22:15;;;;;;;50.30;37.50;;;;;;;-0.56;100.00;98597.20;110088;1260;22818;-78
2023/11/28 10:25:17;;;;;;;49.30;37.40;;;;;;;-0.63;100.00;98594.78;110538;1260;21976;-77
2023/11/28 10:27:47;;;;;;;46.70;37.00;;;;;;;-0.67;100.00;98591.60;110640;1257;21981;-78
2023/11/28 10:30:36;;;;;;;48.60;35.80;;;;;;;-0.72;100.00;98586.08;110471;1260;23714;-77
2023/11/28 10:33:16;;;;;;;56.20;39.40;;;;;;;-0.74;100.00;98581.66;110425;1260;21966;-77
2023/11/28 10:35:46;;;;;;;51.30;39.00;;;;;;;-0.68;100.00;98582.40;110616;1260;23199;-76
2023/11/28 10:38:16;;;;;;;47.30;37.70;;;;;;;-0.62;100.00;98576.64;110645;1260;21970;-77
2023/11/28 10:40:53;;;;;;;49.30;38.70;;;;;;;-0.61;100.00;98572.17;110524;1260;21933;-77
2023/11/28 10:43:22;;;;;;;48.70;38.60;;;;;;;-0.65;100.00;98572.09;110794;1260;22957;-77
2023/11/28 10:45:54;;;;;;;45.70;35.60;;;;;;;-0.65;100.00;98572.94;110845;1257;22027;-77
2023/11/28 10:48:25;;;;;;;46.20;34.70;;;;;;;-0.63;100.00;98573.58;110205;1266;21972;-76
2023/11/28 10:50:57;;;;;;;49.60;37.40;;;;;;;-0.65;100.00;98573.80;110117;1266;23786;-77
2023/11/28 10:53:33;;;;;;;52.80;38.90;;;;;;;-0.66;100.00;98573.14;109978;1267;23589;-77
2023/11/28 10:56:03;;;;;;;49.10;36.40;;;;;;;-0.67;100.00;98576.75;110065;1267;22514;-76
2023/11/28 10:58:33;;;;;;;48.00;37.30;;;;;;;-0.68;100.00;98573.34;110100;1267;21978;-73
2023/11/28 11:01:11;;;;;;;50.90;37.40;;;;;;;-0.67;100.00;98578.80;109132;1272;22165;-78
2023/11/28 11:03:48;;;;;;;52.80;36.80;;;;;;;-0.67;100.00;98578.28;109328;1272;22060;-77
2023/11/28 11:06:18;;;;;;;51.00;38.20;;;;;;;-0.66;100.00;98582.19;109411;1267;21989;-77
2023/11/28 11:08:53;;;;;;;50.10;37.40;;;;;;;-0.65;100.00;98581.82;109974;1266;23200;-76
2023/11/28 11:11:41;;;;;;;51.60;38.20;;;;;;;-0.63;100.00;98576.65;109635;1268;21995;-78
2023/11/28 11:14:47;;;;;;;49.30;38.40;;;;;;;-0.64;100.00;98577.71;110008;1267;22810;-78
2023/11/28 11:17:54;;;;;;;43.10;34.60;;;;;;;-0.73;100.00;98573.27;110238;1267;22825;-81
2023/11/28 11:20:27;;;;;;;47.30;33.60;;;;;;;-0.79;100.00;98576.81;110611;1261;22468;-77
2023/11/28 11:23:04;;;;;;;45.60;34.70;;;;;;;-0.82;100.00;98573.45;110571;1261;21971;-79
2023/11/28 11:25:44;;;;;;;;;;;;;;;-0.82;100.00;98577.21;110105;1266;21958;-77
2023/11/28 11:28:13;;;;;;;50.20;35.40;;;;;;;-0.90;100.00;98577.20;110271;1264;21976;-78
2023/11/28 11:30:44;;;;;;;42.60;34.40;;;;;;;-0.87;100.00;98585.02;110103;1266;23838;-78
2023/11/28 11:33:23;;;;;;;41.10;33.00;;;;;;;-0.85;100.00;98585.30;110196;1266;21980;-79
2023/11/28 11:36:13;;;;;;;41.80;32.30;;;;;;;-0.84;100.00;98585.10;110026;1267;21977;-79
2023/11/28 11:38:49;;;;;;;45.00;34.30;;;;;;;-0.84;100.00;98581.17;110303;1260;21976;-79
2023/11/28 11:41:23;;;;;;;44.80;34.40;;;;;;;-0.81;100.00;98581.14;110157;1266;23590;-77
2023/11/28 11:44:00;;;;;;;44.50;34.60;;;;;;;-0.79;100.00;98580.23;110363;1260;23022;-79
2023/11/28 11:46:31;;;;;;;45.20;33.70;;;;;;;-0.80;100.00;98578.89;110317;1265;22157;-77
2023/11/28 11:49:00;;;;;;;44.50;36.60;;;;;;;-0.81;100.00;98579.07;109456;1271;22006;-78
2023/11/28 11:51:30;;;;;;;47.90;38.20;;;;;;;-0.80;100.00;98580.26;109432;1271;21990;-77
2023/11/28 11:54:10;;;;;;;41.90;33.40;;;;;;;-0.81;100.00;98579.58;109376;1271;22986;-75
2023/11/28 11:56:45;;;;;;;40.60;34.10;;;;;;;-0.82;100.00;98576.36;109416;1271;21986;-76
2023/11/28 11:59:18;;;;;;;44.10;35.10;;;;;;;-0.79;100.00;98585.88;109444;1271;22023;-77
2023/11/28 12:01:52;;;;;;;41.00;34.10;;;;;;;-0.77;100.00;98584.29;109348;1271;21982;-79
2023/11/28 12:04:26;;;;;;;37.40;32.80;;;;;;;-0.75;100.00;98585.28;109611;1267;22452;-79
2023/11/28 12:07:05;;;;;;;47.30;33.90;;;;;;;-0.73;100.00;98581.82;110479;1261;21973;-79
2023/11/28 12:09:46;;;;;;;49.30;36.40;;;;;;;-0.72;100.00;98584.05;110641;1261;21968;-78
2023/11/28 12:12:17;;;;;;;46.30;35.50;;;;;;;-0.74;100.00;98578.95;110504;1261;21980;-77
2023/11/28 12:14:49;;;;;;;42.10;34.20;;;;;;;-0.74;100.00;98577.07;110620;1261;21963;-78
2023/11/28 12:17:28;;;;;;;42.70;34.20;;;;;;;-0.74;100.00;98579.29;110540;1261;21971;-78
2023/11/28 12:20:13;;;;;;;51.40;37.00;;;;;;;-0.77;100.00;98582.42;110692;1260;23047;-78
2023/11/28 12:22:53;;;;;;;47.40;38.30;;;;;;;-0.78;100.00;98580.73;110635;1256;23586;-76
2023/11/28 12:25:38;;;;;;;56.30;42.00;;;;;;;-0.77;100.00;98582.92;110506;1260;21984;-80
2023/11/28 12:28:21;;;;;;;45.30;36.20;;;;;;;-0.73;100.00;98581.13;110339;1266;21985;-78
2023/11/28 12:31:03;;;;;;;43.60;34.20;;;;;;;-0.70;100.00;98581.24;109370;1271;21986;-77
2023/11/28 12:33:36;;;;;;;40.50;33.40;;;;;;;-0.71;100.00;98581.27;109090;1276;24338;-77
2023/11/28 12:36:16;;;;;;;47.40;36.30;;;;;;;-0.71;100.00;98586.73;109151;1275;23637;-77
2023/11/28 12:38:47;;;;;;;46.40;35.90;;;;;;;-0.69;100.00;98593.36;109157;1276;21960;-77
2023/11/28 12:41:32;;;;;;;49.80;37.70;;;;;;;-0.69;100.00;98593.87;109208;1276;23042;-79
2023/11/28 12:44:18;;;;;;;48.40;38.50;;;;;;;-0.68;100.00;98595.05;109019;1271;22034;-76
2023/11/28 12:46:58;;;;;;;54.30;41.20;;;;;;;-0.69;100.00;98594.54;109608;1271;21973;-75
2023/11/28 12:49:50;;;;;;;49.40;39.10;;;;;;;-0.69;100.00;98597.46;109738;1266;21988;-79
2023/11/28 12:52:34;;;;;;;50.00;38.30;;;;;;;-0.69;100.00;98601.90;110523;1261;22175;-76
2023/11/28 12:55:09;;;;;;;50.70;37.70;;;;;;;-0.68;100.00;98607.17;110685;1261;21966;-76
2023/11/28 12:57:57;;;;;;;50.80;37.90;;;;;;;-0.65;100.00;98611.73;110740;1260;22881;-78
2023/11/28 13:00:40;;;;;;;;;;;;;;;;;;;;;
2023/11/28 13:03:30;;;;;;;;;;;;;;;-0.63;100.00;98619.02;110191;1258;21949;-76
2023/11/28 13:06:22;;;;;;;50.60;36.40;;;;;;;-0.67;100.00;98620.30;109827;1270;22010;-76
2023/11/28 13:09:28;;;;;;;56.70;43.10;;;;;;;-0.63;100.00;98622.10;109542;1270;23797;-78
2023/11/28 13:12:17;;;;;;;57.10;41.00;;;;;;;-0.57;100.00;98624.04;108748;1280;22179;-77
2023/11/28 13:15:15;;;;;;;47.30;36.10;;;;;;;-0.52;100.00;98629.41;108649;1281;23070;-78
2023/11/28 13:17:57;;;;;;;46.60;35.60;;;;;;;-0.55;100.00;98630.83;108599;1281;22014;-74
2023/11/28 13:20:44;;;;;;;50.70;37.00;;;;;;;-0.57;100.00;98627.98;108611;1275;21996;-78
2023/11/28 13:23:18;;;;;;;51.00;37.40;;;;;;;-0.73;100.00;98609.33;108811;1275;23047;-77
2023/11/28 13:26:13;;;;;;;51.90;38.40;;;;;;;-0.63;100.00;98633.38;109254;1274;21994;-76
2023/11/28 13:28:48;;;;;;;48.50;37.30;;;;;;;-0.65;100.00;98637.88;109098;1274;22070;-76
2023/11/28 13:31:33;;;;;;;43.90;34.20;;;;;;;-0.68;100.00;98638.61;109942;1267;21987;-76
2023/11/28 13:34:04;;;;;;;56.30;41.50;;;;;;;-0.68;100.00;98643.71;109945;1267;22824;-76